Time;durP1;ratioP1;P1;durP2;ratioP2;P2;SDS_P1;SDS_P2;PMS_P1;PMS_P2;Temp;Humidity;BMP_temperature;BMP_pressure;BME280_temperature;BME280_humidity;BME280_pressure;Samples;Min_cycle;Max_cycle;Signal;HPM_P1;HPM_P2
2020/12/01 00:01:50;;;;;;;63.75;32.85;;;;;;;0.25;69.33;100790.06;124388;1098;104719;-73
2020/12/01 00:04:19;;;;;;;53.97;27.57;;;;;;;0.22;69.44;100791.07;124424;1098;104644;-73
2020/12/01 00:06:47;;;;;;;74.90;40.53;;;;;;;0.15;69.73;100782.63;124375;1098;104546;-72
2020/12/01 00:09:16;;;;;;;63.77;34.70;;;;;;;0.13;69.07;100788.88;124333;1098;104531;-72
2020/12/01 00:11:44;;;;;;;55.00;28.73;;;;;;;0.11;69.77;100782.86;124413;1098;104963;-72
2020/12/01 00:14:12;;;;;;;57.73;29.23;;;;;;;0.14;69.56;100788.81;124372;1098;104654;-74
2020/12/01 00:16:40;;;;;;;60.53;31.63;;;;;;;0.15;69.60;100779.16;124317;1098;104541;-74
2020/12/01 00:19:08;;;;;;;62.87;34.60;;;;;;;0.17;69.49;100778.19;124417;1098;104608;-75
2020/12/01 00:21:37;;;;;;;52.67;27.60;;;;;;;0.21;69.69;100778.86;124568;1098;104571;-74
2020/12/01 00:24:05;;;;;;;62.83;32.93;;;;;;;0.25;69.72;100769.94;124358;1098;104589;-75
2020/12/01 00:26:33;;;;;;;54.33;28.37;;;;;;;0.26;69.64;100776.03;124377;1098;104529;-73
2020/12/01 00:29:01;;;;;;;59.20;30.90;;;;;;;0.30;69.69;100770.55;124406;1099;104650;-73
2020/12/01 00:31:29;;;;;;;54.13;26.47;;;;;;;0.28;69.75;100766.30;124366;1098;104609;-74
2020/12/01 00:33:58;;;;;;;47.83;25.40;;;;;;;0.27;69.57;100773.34;124320;1099;104544;-74
2020/12/01 00:36:27;;;;;;;48.20;24.23;;;;;;;0.25;69.63;100780.44;124398;1098;104535;-74
2020/12/01 00:38:56;;;;;;;47.37;25.00;;;;;;;0.25;69.66;100784.81;124381;1098;104672;-73
2020/12/01 00:41:24;;;;;;;49.30;25.40;;;;;;;0.23;69.64;100791.91;124359;1098;104793;-73
2020/12/01 00:43:52;;;;;;;47.93;24.97;;;;;;;0.25;69.89;100793.56;124361;1098;104519;-72
2020/12/01 00:46:20;;;;;;;44.17;23.57;;;;;;;0.23;69.85;100790.13;124377;1098;104565;-73
2020/12/01 00:48:49;;;;;;;41.93;22.90;;;;;;;0.21;69.80;100788.52;124421;1098;104641;-72
2020/12/01 00:51:17;;;;;;;47.05;24.50;;;;;;;0.13;69.72;100788.88;124378;1098;104608;-72
2020/12/01 00:53:46;;;;;;;41.40;20.60;;;;;;;0.07;69.71;100789.18;124407;1098;104577;-72
2020/12/01 00:56:20;;;;;;;45.83;23.13;;;;;;;-0.01;69.94;100779.89;123932;1099;104994;-73
2020/12/01 00:58:49;;;;;;;41.70;21.00;;;;;;;-0.11;69.90;100789.13;124067;1100;104698;-72
2020/12/01 01:01:40;;;;;;;45.33;23.20;;;;;;;-0.17;69.85;100784.17;124373;1098;104628;-74
2020/12/01 01:04:08;;;;;;;62.13;31.87;;;;;;;-0.17;70.30;100781.55;124339;1098;104578;-71
2020/12/01 01:06:36;;;;;;;55.90;26.57;;;;;;;-0.19;69.78;100780.77;124400;1098;104583;-72
2020/12/01 01:09:06;;;;;;;51.90;26.23;;;;;;;-0.17;70.23;100784.17;124391;1098;104679;-73
2020/12/01 01:11:34;;;;;;;43.87;19.47;;;;;;;-0.18;69.76;100782.45;124443;1098;104641;-74
2020/12/01 01:14:02;;;;;;;47.60;22.80;;;;;;;-0.22;70.29;100776.50;124383;1098;104533;-73
2020/12/01 01:16:31;;;;;;;51.63;27.77;;;;;;;-0.27;70.50;100775.02;124347;1098;104608;-73
2020/12/01 01:18:59;;;;;;;51.07;25.30;;;;;;;-0.28;70.08;100778.57;124430;1100;104609;-72
2020/12/01 01:21:27;;;;;;;53.33;26.63;;;;;;;-0.26;70.37;100779.34;124352;1098;104536;-73
2020/12/01 01:23:55;;;;;;;42.37;21.23;;;;;;;-0.27;70.60;100777.63;124379;1098;104598;-72
2020/12/01 01:26:24;;;;;;;41.93;21.97;;;;;;;-0.27;70.51;100777.63;124339;1098;104519;-73
2020/12/01 01:28:52;;;;;;;45.47;21.80;;;;;;;-0.28;70.61;100771.55;124424;1098;104656;-72
2020/12/01 01:31:20;;;;;;;41.33;21.70;;;;;;;-0.25;69.91;100770.55;124404;1098;104682;-72
2020/12/01 01:33:49;;;;;;;40.20;21.33;;;;;;;-0.21;70.50;100761.64;124359;1100;104903;-73
2020/12/01 01:36:17;;;;;;;42.17;20.47;;;;;;;-0.21;70.66;100761.64;124346;1098;104500;-73
2020/12/01 01:38:45;;;;;;;41.20;21.35;;;;;;;-0.19;70.55;100754.55;124420;1100;104782;-72
2020/12/01 01:41:13;;;;;;;37.10;19.63;;;;;;;-0.15;69.95;100761.34;124496;1098;104530;-73
2020/12/01 01:43:41;;;;;;;41.80;20.45;;;;;;;-0.11;70.25;100762.05;124360;1098;104637;-72
2020/12/01 01:46:39;;;;;;;40.17;19.53;;;;;;;-0.07;70.43;100758.36;124353;1098;104609;-72
2020/12/01 01:49:12;;;;;;;39.97;19.73;;;;;;;-0.09;70.79;100761.05;124138;1100;104562;-72
2020/12/01 01:51:46;;;;;;;41.47;20.73;;;;;;;-0.06;70.61;100749.55;124425;1098;104592;-74
2020/12/01 01:54:16;;;;;;;39.40;19.25;;;;;;;-0.04;70.20;100740.70;124368;1098;104522;-71
2020/12/01 01:56:46;;;;;;;39.27;19.63;;;;;;;-0.03;70.28;100744.17;124283;1098;104606;-72
2020/12/01 01:59:17;;;;;;;35.00;17.03;;;;;;;-0.03;70.18;100741.55;124434;1098;104884;-72
2020/12/01 02:01:45;;;;;;;38.77;19.83;;;;;;;-0.03;70.29;100728.43;124368;1098;104609;-72
2020/12/01 02:04:15;;;;;;;37.25;19.05;;;;;;;-0.03;70.66;100731.89;124396;1098;104584;-72
2020/12/01 02:06:47;;;;;;;40.40;18.85;;;;;;;-0.01;70.85;100722.17;124390;1098;104506;-73
2020/12/01 02:09:19;;;;;;;38.33;18.23;;;;;;;0.03;70.87;100722.88;124404;1098;104621;-73
2020/12/01 02:11:49;;;;;;;34.47;17.57;;;;;;;0.04;70.27;100723.72;124375;1098;104609;-71
2020/12/01 02:14:21;;;;;;;37.03;18.30;;;;;;;0.05;70.46;100714.94;124031;1100;104612;-72
2020/12/01 02:16:53;;;;;;;36.13;17.00;;;;;;;0.08;70.27;100714.77;124364;1098;104986;-73
2020/12/01 02:19:23;;;;;;;35.70;18.97;;;;;;;0.07;70.73;100720.97;124399;1100;104746;-74
2020/12/01 02:21:54;;;;;;;36.37;18.23;;;;;;;0.07;70.27;100723.59;124428;1098;104541;-72
2020/12/01 02:24:27;;;;;;;41.17;20.50;;;;;;;0.06;70.65;100716.62;124322;1098;104541;-73
2020/12/01 02:26:58;;;;;;;34.33;17.13;;;;;;;0.05;70.67;100718.41;124361;1098;104637;-72
2020/12/01 02:29:30;;;;;;;34.63;17.30;;;;;;;0.02;70.81;100710.70;124433;1098;104606;-73
2020/12/01 02:31:59;;;;;;;36.83;17.87;;;;;;;0.02;70.88;100704.58;124377;1098;105059;-72
2020/12/01 02:34:34;;;;;;;36.77;17.03;;;;;;;0.00;70.60;100699.44;124354;1098;104641;-74
2020/12/01 02:37:04;;;;;;;39.73;19.70;;;;;;;-0.03;71.00;100705.66;124304;1098;104560;-72
2020/12/01 02:39:33;;;;;;;33.83;16.07;;;;;;;-0.07;71.14;100698.02;124538;1098;104917;-73
2020/12/01 02:42:03;;;;;;;37.33;18.43;;;;;;;-0.05;70.98;100697.02;124372;1098;104750;-72
2020/12/01 02:44:32;;;;;;;38.50;18.70;;;;;;;-0.05;71.26;100704.05;124366;1098;104531;-72
2020/12/01 02:47:04;;;;;;;38.30;19.23;;;;;;;-0.04;70.98;100689.98;124343;1098;104596;-73
2020/12/01 02:49:33;;;;;;;35.70;17.87;;;;;;;0.02;70.98;100700.21;124334;1098;104640;-73
2020/12/01 02:52:02;;;;;;;37.37;18.80;;;;;;;0.07;70.83;100699.97;124379;1098;104574;-75
2020/12/01 02:54:31;;;;;;;39.70;20.20;;;;;;;0.10;71.07;100686.72;124372;1098;104532;-72
2020/12/01 02:56:59;;;;;;;42.80;19.83;;;;;;;0.12;71.11;100685.70;124298;1098;104614;-72
2020/12/01 02:59:28;;;;;;;37.13;18.47;;;;;;;0.12;71.21;100683.08;124290;1098;104663;-73
2020/12/01 03:01:56;;;;;;;35.67;18.67;;;;;;;0.11;71.03;100683.99;124397;1098;104596;-72
2020/12/01 03:04:24;;;;;;;39.00;19.43;;;;;;;0.16;70.97;100691.66;124276;1098;104606;-73
2020/12/01 03:06:52;;;;;;;37.60;18.30;;;;;;;0.17;70.83;100686.34;124406;1098;104522;-71
2020/12/01 03:09:21;;;;;;;39.93;20.90;;;;;;;0.17;71.12;100677.59;124287;1098;104516;-74
2020/12/01 03:11:50;;;;;;;37.55;18.25;;;;;;;0.17;71.40;100680.22;124400;1099;104533;-74
2020/12/01 03:14:19;;;;;;;50.77;22.53;;;;;;;0.18;71.00;100669.65;124386;1098;104529;-73
2020/12/01 03:16:47;;;;;;;40.60;20.25;;;;;;;0.16;71.28;100675.91;124402;1099;104654;-72
2020/12/01 03:19:16;;;;;;;45.30;23.10;;;;;;;0.13;71.09;100669.02;124446;1098;104658;-74
2020/12/01 03:21:44;;;;;;;48.33;23.07;;;;;;;0.09;71.06;100669.26;124383;1098;104623;-73
2020/12/01 03:24:12;;;;;;;45.30;22.47;;;;;;;0.05;71.15;100665.09;124381;1098;104917;-72
2020/12/01 03:26:41;;;;;;;46.40;23.37;;;;;;;0.00;71.30;100665.33;124373;1100;104663;-72
2020/12/01 03:29:09;;;;;;;43.97;21.63;;;;;;;-0.06;70.98;100671.73;124402;1098;104669;-72
2020/12/01 03:31:37;;;;;;;46.55;22.25;;;;;;;-0.07;70.38;100663.92;124236;1098;105063;-73
2020/12/01 03:34:05;;;;;;;42.97;21.60;;;;;;;-0.09;71.03;100671.86;124398;1098;104496;-73
2020/12/01 03:36:34;;;;;;;49.80;23.03;;;;;;;-0.11;70.96;100665.84;124352;1098;104609;-71
2020/12/01 03:39:02;;;;;;;44.23;20.70;;;;;;;-0.13;71.31;100670.31;124342;1098;104641;-73
2020/12/01 03:41:31;;;;;;;43.10;21.37;;;;;;;-0.16;70.80;100670.45;124272;1098;104613;-72
2020/12/01 03:43:59;;;;;;;43.63;21.77;;;;;;;-0.20;71.36;100664.50;124350;1098;104494;-75
2020/12/01 03:46:27;;;;;;;44.35;21.35;;;;;;;-0.21;71.09;100668.06;124384;1099;104512;-72
2020/12/01 03:48:58;;;;;;;46.13;23.13;;;;;;;-0.21;71.37;100662.82;124372;1098;104563;-73
2020/12/01 03:51:27;;;;;;;42.60;19.35;;;;;;;-0.23;71.02;100669.08;124378;1098;105066;-73
2020/12/01 03:53:55;;;;;;;45.87;22.87;;;;;;;-0.26;71.12;100663.96;124434;1098;104609;-74
2020/12/01 03:56:23;;;;;;;46.37;21.10;;;;;;;-0.27;70.63;100668.37;124382;1098;104518;-73
2020/12/01 03:58:52;;;;;;;45.00;23.20;;;;;;;-0.28;70.91;100665.81;124391;1098;104510;-74
2020/12/01 04:01:20;;;;;;;45.23;22.07;;;;;;;-0.31;71.12;100671.19;124439;1098;105027;-74
2020/12/01 04:03:49;;;;;;;47.35;22.85;;;;;;;-0.32;71.34;100678.22;124552;1098;104605;-70
2020/12/01 04:06:17;;;;;;;46.77;22.10;;;;;;;-0.32;71.11;100674.75;124346;1098;104565;-73
2020/12/01 04:08:45;;;;;;;41.10;20.15;;;;;;;-0.36;71.07;100670.58;124443;1098;104621;-73
2020/12/01 04:11:14;;;;;;;48.37;22.83;;;;;;;-0.37;71.63;100668.87;124449;1098;104631;-70
2020/12/01 04:13:42;;;;;;;47.47;20.57;;;;;;;-0.36;71.27;100670.58;124434;1098;104957;-70
2020/12/01 04:16:10;;;;;;;44.03;22.50;;;;;;;-0.36;71.18;100670.58;124807;1098;104603;-72
2020/12/01 04:18:39;;;;;;;44.97;21.97;;;;;;;-0.35;70.96;100667.02;124612;1099;104612;-71
2020/12/01 04:21:07;;;;;;;44.83;22.13;;;;;;;-0.34;70.70;100673.98;124178;1098;104592;-73
2020/12/01 04:23:35;;;;;;;45.80;24.13;;;;;;;-0.35;70.76;100665.23;124438;1098;104522;-71
2020/12/01 04:26:04;;;;;;;39.97;20.37;;;;;;;-0.33;70.84;100663.39;124286;1098;104525;-72
2020/12/01 04:28:32;;;;;;;45.80;23.27;;;;;;;-0.34;70.55;100659.09;124227;1098;104599;-72
2020/12/01 04:31:00;;;;;;;45.53;21.73;;;;;;;-0.35;70.34;100665.23;124514;1098;104540;-72
2020/12/01 04:33:29;;;;;;;47.27;23.33;;;;;;;-0.33;70.17;100657.30;124339;1098;104530;-73
2020/12/01 04:35:57;;;;;;;41.90;21.70;;;;;;;-0.33;70.47;100659.92;124587;1098;104528;-73
2020/12/01 04:38:25;;;;;;;44.35;22.25;;;;;;;-0.37;71.28;100653.98;124417;1098;104760;-72
2020/12/01 04:40:54;;;;;;;43.47;22.43;;;;;;;-0.36;71.21;100657.47;124606;1098;104606;-73
2020/12/01 04:43:31;;;;;;;46.10;22.00;;;;;;;-0.38;70.88;100656.70;124534;1099;104531;-71
2020/12/01 04:46:01;;;;;;;43.03;22.27;;;;;;;-0.37;70.43;100656.60;128077;1099;102566;-72
2020/12/01 04:48:36;;;;;;;39.80;20.00;;;;;;;-0.36;70.94;100657.47;124681;1098;104950;-75
2020/12/01 04:51:21;;;;;;;43.53;23.03;;;;;;;-0.37;70.68;100651.36;124391;1098;104625;-72
2020/12/01 04:54:21;;;;;;;43.23;21.83;;;;;;;-0.36;71.04;100657.47;124360;1098;104499;-72
2020/12/01 04:57:26;;;;;;;39.83;18.97;;;;;;;-0.38;70.58;100648.83;124352;1098;105019;-71
2020/12/01 05:00:13;;;;;;;46.63;23.07;;;;;;;-0.37;69.98;100650.52;124404;1098;104589;-76
2020/12/01 05:03:07;;;;;;;45.15;22.25;;;;;;;-0.38;70.44;100654.08;124379;1098;104536;-72
2020/12/01 05:05:53;;;;;;;39.07;19.73;;;;;;;-0.39;70.33;100647.96;124271;1099;104522;-74
2020/12/01 05:08:33;;;;;;;42.40;21.20;;;;;;;-0.38;70.17;100654.08;124353;1098;104525;-70
2020/12/01 05:11:08;;;;;;;43.00;22.77;;;;;;;-0.40;70.59;100654.14;124389;1098;104737;-74
2020/12/01 05:13:37;;;;;;;42.90;21.73;;;;;;;-0.41;70.82;100647.19;124328;1099;104551;-73
2020/12/01 05:16:21;;;;;;;45.10;22.57;;;;;;;-0.42;70.84;100659.45;124351;1098;104579;-72
2020/12/01 05:18:50;;;;;;;41.03;21.10;;;;;;;-0.44;70.70;100648.19;124360;1098;104500;-74
2020/12/01 05:21:23;;;;;;;41.40;21.70;;;;;;;-0.47;70.20;100650.11;124360;1098;104784;-73
2020/12/01 05:23:52;;;;;;;41.03;21.23;;;;;;;-0.51;70.34;100644.16;124454;1098;104945;-75
2020/12/01 05:26:29;;;;;;;44.47;22.77;;;;;;;-0.52;70.48;100642.47;124429;1098;104542;-76
2020/12/01 05:28:58;;;;;;;41.40;21.70;;;;;;;-0.53;70.29;100653.02;124354;1098;104899;-75
2020/12/01 05:31:39;;;;;;;39.40;19.40;;;;;;;-0.56;70.79;100651.38;124429;1098;104637;-73
2020/12/01 05:34:17;;;;;;;45.63;23.17;;;;;;;-0.55;70.17;100652.25;124414;1098;104497;-73
2020/12/01 05:36:46;;;;;;;42.97;20.93;;;;;;;-0.55;70.68;100658.33;124401;1098;104609;-73
2020/12/01 05:39:18;;;;;;;40.40;21.43;;;;;;;-0.57;70.21;100654.94;124441;1098;104874;-71
2020/12/01 05:41:59;;;;;;;41.87;20.87;;;;;;;-0.61;69.81;100653.38;124415;1098;104636;-71
2020/12/01 05:44:30;;;;;;;41.23;20.53;;;;;;;-0.65;69.71;100660.53;124385;1098;104592;-71
2020/12/01 05:47:07;;;;;;;44.53;22.30;;;;;;;-0.67;70.57;100659.76;124255;1098;104519;-73
2020/12/01 05:49:43;;;;;;;45.00;20.30;;;;;;;-0.68;70.18;100655.42;124405;1098;104526;-73
2020/12/01 05:52:17;;;;;;;71.63;35.80;;;;;;;-0.66;70.27;100655.36;124312;1098;104651;-73
2020/12/01 05:54:47;;;;;;;85.47;38.00;;;;;;;-0.67;70.43;100651.06;124397;1100;104578;-73
2020/12/01 05:57:21;;;;;;;64.27;32.00;;;;;;;-0.67;70.12;100656.30;124392;1098;105008;-73
2020/12/01 05:59:55;;;;;;;48.73;23.63;;;;;;;-0.70;69.97;100664.29;124379;1098;104496;-74
2020/12/01 06:02:34;;;;;;;48.80;22.93;;;;;;;-0.74;70.01;100658.33;124369;1098;104634;-73
2020/12/01 06:05:03;;;;;;;52.70;25.63;;;;;;;-0.76;70.08;100660.18;124357;1098;104558;-72
2020/12/01 06:07:31;;;;;;;49.40;24.20;;;;;;;-0.77;69.93;100673.34;124355;1098;104522;-72
2020/12/01 06:10:19;;;;;;;101.93;62.50;;;;;;;-0.77;70.17;100666.36;124369;1098;104596;-74
2020/12/01 06:13:22;;;;;;;70.07;36.03;;;;;;;-0.81;69.81;100668.27;124499;1098;104627;-73
2020/12/01 06:16:02;;;;;;;65.85;32.90;;;;;;;-0.83;69.89;100662.25;124360;1098;105022;-73
2020/12/01 06:18:43;;;;;;;89.60;55.25;;;;;;;-0.81;70.54;100663.02;124408;1098;104625;-74
2020/12/01 06:21:11;;;;;;;;;;;;;;;-0.78;70.50;100661.18;124455;1099;104515;-72
2020/12/01 06:24:15;;;;;;;92.17;38.50;;;;;;;-0.81;70.60;100665.64;123951;1100;104721;-74
2020/12/01 06:27:05;;;;;;;123.87;56.17;;;;;;;-0.80;70.35;100671.73;124206;1098;104621;-73
2020/12/01 06:30:32;;;;;;;128.87;51.40;;;;;;;-0.82;70.23;100682.27;124258;1098;104519;-72
2020/12/01 06:33:52;;;;;;;271.70;107.43;;;;;;;-0.82;70.87;100676.19;124075;1098;104527;-71
2020/12/01 06:36:56;;;;;;;186.90;80.70;;;;;;;-0.79;70.74;100678.65;124377;1098;104675;-73
2020/12/01 06:39:37;;;;;;;146.57;59.07;;;;;;;-0.76;69.73;100678.52;124394;1099;104549;-71
2020/12/01 06:42:14;;;;;;;151.93;64.10;;;;;;;-0.77;70.17;100679.46;124358;1098;104916;-72
2020/12/01 06:44:45;;;;;;;202.73;69.20;;;;;;;-0.76;70.12;100682.92;124350;1098;104599;-72
2020/12/01 06:47:14;;;;;;;186.67;66.30;;;;;;;-0.75;69.87;100681.98;124549;1098;104582;-72
2020/12/01 06:49:42;;;;;;;171.90;59.47;;;;;;;-0.74;70.24;100686.31;124417;1098;104624;-72
2020/12/01 06:52:14;;;;;;;156.73;55.67;;;;;;;-0.70;69.72;100686.09;124397;1098;104496;-72
2020/12/01 06:54:49;;;;;;;;;;;;;;;-0.68;70.04;100680.79;124450;1098;104525;-71
2020/12/01 06:57:29;;;;;;;189.53;65.47;;;;;;;-0.67;70.53;100687.74;123966;1100;104663;-72
2020/12/01 06:59:58;;;;;;;208.03;69.80;;;;;;;-0.66;70.43;100694.67;124389;1098;104951;-73
2020/12/01 07:02:31;;;;;;;194.10;73.57;;;;;;;-0.65;69.94;100683.28;124406;1098;104605;-72
2020/12/01 07:05:12;;;;;;;204.07;63.87;;;;;;;-0.62;70.65;100688.36;124410;1098;104538;-74
2020/12/01 07:07:44;;;;;;;247.50;81.33;;;;;;;-0.60;69.95;100694.37;124412;1098;104519;-72
2020/12/01 07:10:27;;;;;;;201.23;66.57;;;;;;;-0.59;70.10;100703.95;124434;1098;104622;-72
2020/12/01 07:13:11;;;;;;;190.10;68.03;;;;;;;-0.60;70.42;100702.24;124352;1098;104583;-75
2020/12/01 07:15:43;;;;;;;753.60;459.57;;;;;;;-0.55;70.30;100691.56;124408;1098;104609;-72
2020/12/01 07:18:26;;;;;;;640.25;323.85;;;;;;;-0.53;70.02;100701.05;124409;1098;104797;-74
2020/12/01 07:21:25;;;;;;;407.17;138.47;;;;;;;-0.51;70.62;100696.58;124332;1098;104596;-71
2020/12/01 07:24:03;;;;;;;717.87;385.83;;;;;;;-0.47;70.00;100698.13;124008;1098;104673;-72
2020/12/01 07:26:40;;;;;;;967.47;498.83;;;;;;;-0.41;70.04;100704.86;124401;1099;104965;-73
2020/12/01 07:29:46;;;;;;;1245.50;686.60;;;;;;;-0.36;70.62;100691.56;124366;1098;104613;-74
2020/12/01 07:32:20;;;;;;;995.77;506.87;;;;;;;-0.35;70.77;100706.34;124378;1098;104583;-74
2020/12/01 07:34:51;;;;;;;1076.23;576.93;;;;;;;-0.31;69.98;100708.77;124442;1098;104634;-71
2020/12/01 07:37:47;;;;;;;886.10;437.03;;;;;;;-0.29;70.13;100709.55;124359;1099;104580;-74
2020/12/01 07:40:26;;;;;;;1580.47;771.70;;;;;;;-0.26;70.29;100709.39;124470;1098;104523;-75
2020/12/01 07:43:00;;;;;;;1185.75;603.00;;;;;;;-0.26;70.30;100713.79;124381;1098;104582;-71
2020/12/01 07:45:30;;;;;;;969.83;501.57;;;;;;;-0.24;70.56;100714.56;124287;1098;104612;-73
2020/12/01 07:48:01;;;;;;;1403.43;747.63;;;;;;;-0.20;70.38;100721.36;124405;1098;104612;-73
2020/12/01 07:50:32;;;;;;;716.12;319.90;;;;;;;-0.13;70.65;100717.53;124420;1098;104624;-73
2020/12/01 07:53:04;;;;;;;635.03;293.60;;;;;;;-0.08;70.54;100719.92;124404;1098;104636;-72
2020/12/01 07:55:37;;;;;;;728.57;410.90;;;;;;;-0.04;70.29;100727.59;124298;1093;104532;-70
2020/12/01 07:58:15;;;;;;;666.13;335.23;;;;;;;-0.02;70.29;100730.98;124481;1093;104593;-72
2020/12/01 08:00:47;;;;;;;675.90;366.07;;;;;;;0.04;70.18;100731.59;124357;1098;104596;-72
2020/12/01 08:03:21;;;;;;;560.80;296.77;;;;;;;0.07;70.65;100734.08;124346;1098;104746;-72
2020/12/01 08:05:49;;;;;;;741.97;444.60;;;;;;;0.10;70.57;100733.95;124374;1098;104541;-73
2020/12/01 08:08:19;;;;;;;567.37;295.43;;;;;;;0.13;70.34;100731.16;124340;1098;104516;-73
2020/12/01 08:10:49;;;;;;;572.90;329.90;;;;;;;0.13;70.28;100741.65;124389;1098;104659;-73
2020/12/01 08:13:20;;;;;;;467.75;241.10;;;;;;;0.15;70.26;100732.77;124412;1098;104580;-72
2020/12/01 08:15:57;;;;;;;532.50;289.70;;;;;;;0.17;70.80;100737.95;124279;1098;104644;-73
2020/12/01 08:18:26;;;;;;;569.13;319.90;;;;;;;0.22;70.35;100733.34;124308;1099;104874;-71
2020/12/01 08:20:56;;;;;;;442.43;226.77;;;;;;;0.24;70.67;100731.48;124265;1098;104615;-71
2020/12/01 08:23:28;;;;;;;640.53;412.87;;;;;;;0.29;70.34;100729.50;124425;1098;104656;-71
2020/12/01 08:26:03;;;;;;;434.17;217.07;;;;;;;0.33;70.53;100730.20;124430;1093;104525;-71
2020/12/01 08:28:37;;;;;;;385.40;194.17;;;;;;;0.34;70.44;100724.84;124266;1099;104570;-71
2020/12/01 08:31:19;;;;;;;223.83;96.40;;;;;;;0.36;70.41;100725.62;124402;1098;104778;-73
2020/12/01 08:34:02;;;;;;;674.90;455.30;;;;;;;0.36;70.51;100728.24;124355;1098;104536;-74
2020/12/01 08:36:47;;;;;;;394.73;199.27;;;;;;;0.39;70.16;100730.73;124433;1093;104541;-71
2020/12/01 08:40:05;;;;;;;336.53;160.00;;;;;;;0.46;70.55;100726.00;124323;1093;104529;-72
2020/12/01 08:42:48;;;;;;;211.63;91.03;;;;;;;0.50;70.42;100732.83;124103;1100;104673;-72
2020/12/01 08:45:46;;;;;;;273.65;131.00;;;;;;;0.52;70.51;100730.09;124358;1098;104526;-75
2020/12/01 08:48:24;;;;;;;433.73;249.20;;;;;;;0.51;70.47;100733.67;124233;1098;104497;-71
2020/12/01 08:51:08;;;;;;;496.47;315.63;;;;;;;0.55;70.43;100737.84;124463;1098;104533;-74
2020/12/01 08:53:52;;;;;;;312.90;147.85;;;;;;;0.57;70.57;100733.36;124383;1098;105008;-74
2020/12/01 08:56:34;;;;;;;371.90;171.70;;;;;;;0.66;70.80;100732.05;124471;1099;104740;-71
2020/12/01 09:01:42;;;;;;;251.83;102.63;;;;;;;0.71;70.52;100741.41;124251;1098;104573;-72
2020/12/01 09:04:23;;;;;;;312.83;164.63;;;;;;;0.73;70.16;100739.55;124402;1098;104531;-72
2020/12/01 09:06:53;;;;;;;482.80;315.95;;;;;;;0.81;70.14;100740.91;124403;1098;104579;-71
2020/12/01 09:09:24;;;;;;;459.33;290.83;;;;;;;0.87;70.41;100740.62;124344;1098;104609;-72
2020/12/01 09:12:14;;;;;;;328.35;178.70;;;;;;;0.90;69.84;100740.44;124289;1098;105018;-72
2020/12/01 09:14:54;;;;;;;410.40;278.07;;;;;;;0.89;70.47;100744.86;124406;1098;104762;-71
2020/12/01 09:17:33;;;;;;;266.43;153.83;;;;;;;0.95;70.66;100746.31;124296;1099;104682;-72
2020/12/01 09:20:23;;;;;;;227.73;134.33;;;;;;;0.99;70.30;100750.48;124392;1098;104615;-73
2020/12/01 09:23:01;;;;;;;145.00;85.70;;;;;;;1.03;70.53;100753.80;124361;1098;104532;-73
2020/12/01 09:25:30;;;;;;;86.30;48.05;;;;;;;1.04;70.46;100747.60;124311;1098;104721;-71
2020/12/01 09:27:59;;;;;;;84.30;49.23;;;;;;;1.09;69.85;100741.18;123899;1099;104609;-72
2020/12/01 09:30:32;;;;;;;71.57;43.53;;;;;;;1.14;70.19;100744.42;124422;1098;105127;-72
2020/12/01 09:33:00;;;;;;;196.33;155.73;;;;;;;1.18;70.38;100745.12;124352;1098;104509;-71
2020/12/01 09:35:30;;;;;;;98.97;64.77;;;;;;;1.21;69.92;100737.05;124307;1098;104685;-71
2020/12/01 09:37:59;;;;;;;86.40;56.50;;;;;;;1.25;69.97;100741.24;124264;1098;104574;-73
2020/12/01 09:40:27;;;;;;;88.80;63.80;;;;;;;1.27;70.04;100733.25;124345;1098;104615;-71
2020/12/01 09:42:59;;;;;;;95.10;68.40;;;;;;;1.30;70.37;100730.47;124313;1098;104611;-73
2020/12/01 09:45:30;;;;;;;72.13;46.67;;;;;;;1.33;69.82;100732.95;124389;1098;104957;-74
2020/12/01 09:48:03;;;;;;;69.45;44.45;;;;;;;1.39;69.74;100724.72;124367;1098;104555;-73
2020/12/01 09:50:34;;;;;;;80.63;52.20;;;;;;;1.42;70.30;100731.59;124330;1098;104497;-75
2020/12/01 09:56:00;;;;;;;65.90;43.37;;;;;;;1.56;69.84;100723.81;124345;1098;104630;-73
2020/12/01 09:59:16;;;;;;;65.80;44.57;;;;;;;1.61;69.88;100727.02;124365;1100;104668;-73
2020/12/01 10:07:51;;;;;;;46.57;27.80;;;;;;;1.78;70.75;100731.36;124691;1098;104864;-72
2020/12/01 10:10:36;;;;;;;55.60;36.90;;;;;;;1.85;69.46;100730.09;124473;1098;104644;-72
2020/12/01 10:13:13;;;;;;;52.37;34.37;;;;;;;1.87;70.23;100735.28;124405;1098;104507;-74
2020/12/01 10:35:22;;;;;;;38.27;22.20;;;;;;;2.10;69.60;100718.19;124639;1095;104582;-70
2020/12/01 10:37:53;;;;;;;39.47;24.60;;;;;;;2.08;69.30;100720.03;124643;1096;104510;-74
2020/12/01 10:40:23;;;;;;;41.10;24.30;;;;;;;2.07;69.13;100718.35;124670;1095;104496;-72
2020/12/01 10:42:51;;;;;;;40.23;25.47;;;;;;;2.07;69.44;100720.98;124598;1095;104679;-72
2020/12/01 10:45:21;;;;;;;53.57;39.57;;;;;;;2.04;69.48;100714.12;124622;1095;104499;-72
2020/12/01 10:47:51;;;;;;;49.70;35.47;;;;;;;2.04;68.81;100721.14;124613;1095;104593;-73
2020/12/01 10:50:23;;;;;;;52.17;36.67;;;;;;;2.02;69.65;100721.25;124589;1095;104538;-73
2020/12/01 10:52:51;;;;;;;66.13;45.57;;;;;;;2.02;68.44;100720.38;124551;1090;104768;-73
2020/12/01 10:55:22;;;;;;;59.83;43.70;;;;;;;2.02;68.55;100725.65;124665;1095;104590;-70
2020/12/01 10:57:51;;;;;;;77.07;55.10;;;;;;;2.04;69.18;100735.17;124490;1095;104519;-72
2020/12/01 11:00:21;;;;;;;56.10;32.63;;;;;;;2.07;69.45;100729.72;124647;1095;105012;-74
2020/12/01 11:02:50;;;;;;;69.57;41.83;;;;;;;2.07;69.55;100732.35;124615;1095;104707;-72
2020/12/01 11:05:21;;;;;;;63.13;37.23;;;;;;;2.08;69.17;100743.72;124655;1090;104596;-72
2020/12/01 11:07:49;;;;;;;85.07;56.75;;;;;;;2.10;69.00;100739.25;124602;1089;104595;-72
2020/12/01 11:10:18;;;;;;;73.80;44.10;;;;;;;2.12;68.43;100740.01;124557;1089;104593;-71
2020/12/01 11:12:46;;;;;;;104.87;63.93;;;;;;;2.15;68.17;100734.55;124829;1090;104605;-71
2020/12/01 11:15:15;;;;;;;59.90;32.80;;;;;;;2.18;68.05;100723.86;124795;1090;104990;-73
2020/12/01 11:17:43;;;;;;;63.80;38.03;;;;;;;2.19;68.61;100727.33;124584;1090;104516;-73
2020/12/01 11:20:14;;;;;;;59.67;31.13;;;;;;;2.22;68.53;100724.53;124608;1095;104510;-71
2020/12/01 11:22:44;;;;;;;68.30;39.50;;;;;;;2.25;68.02;100726.97;124675;1095;104513;-74
2020/12/01 11:25:12;;;;;;;59.73;32.87;;;;;;;2.29;69.25;100726.73;124623;1095;104597;-72
2020/12/01 11:27:40;;;;;;;59.87;34.13;;;;;;;2.31;68.53;100719.59;124611;1095;104583;-72
2020/12/01 11:30:09;;;;;;;66.07;34.37;;;;;;;2.35;67.89;100721.09;124637;1095;104490;-71
2020/12/01 11:32:37;;;;;;;60.10;35.07;;;;;;;2.39;68.46;100724.41;124535;1095;104599;-73
2020/12/01 11:35:07;;;;;;;66.20;38.53;;;;;;;2.47;69.10;100726.59;124624;1095;104589;-73
2020/12/01 11:37:35;;;;;;;54.67;31.17;;;;;;;2.51;67.47;100731.58;124649;1095;104522;-74
2020/12/01 11:40:04;;;;;;;44.70;25.95;;;;;;;2.54;67.36;100727.91;124725;1096;104500;-72
2020/12/01 11:42:32;;;;;;;50.00;28.30;;;;;;;2.57;68.26;100722.47;124633;1095;104696;-74
2020/12/01 11:45:00;;;;;;;39.40;21.87;;;;;;;2.64;68.11;100725.61;124618;1095;104596;-72
2020/12/01 11:47:29;;;;;;;37.27;23.30;;;;;;;2.67;67.54;100723.62;124633;1095;105790;-72
2020/12/01 11:49:57;;;;;;;338.97;220.07;;;;;;;2.70;68.62;100722.61;124642;1095;104593;-72
2020/12/01 11:52:25;;;;;;;313.93;167.37;;;;;;;2.70;66.92;100723.45;124629;1095;104689;-72
2020/12/01 11:54:53;;;;;;;310.53;191.43;;;;;;;2.72;68.14;100732.11;124626;1095;104487;-75